sensor_id;sensor_type;location;lat;lon;timestamp;pressure;altitude;pressure_sealevel;temperature;humidity
59650;BME280;46162;57.568;25.814;2023-06-26T00:01:15;100761.13;;;12.45;100.00
59650;BME280;46162;57.568;25.814;2023-06-26T00:03:44;100758.56;;;12.43;100.00
59650;BME280;46162;57.568;25.814;2023-06-26T00:06:13;100755.59;;;12.20;100.00
59650;BME280;46162;57.568;25.814;2023-06-26T00:08:41;100762.06;;;12.01;100.00
59650;BME280;46162;57.568;25.814;2023-06-26T00:11:10;100752.63;;;12.05;100.00
59650;BME280;46162;57.568;25.814;2023-06-26T00:13:39;100755.69;;;11.84;100.00
59650;BME280;46162;57.568;25.814;2023-06-26T00:16:07;100755.47;;;11.78;100.00
59650;BME280;46162;57.568;25.814;2023-06-26T00:18:37;100758.88;;;11.80;100.00
59650;BME280;46162;57.568;25.814;2023-06-26T00:21:06;100756.03;;;12.08;100.00
59650;BME280;46162;57.568;25.814;2023-06-26T00:23:34;100761.03;;;12.29;100.00
59650;BME280;46162;57.568;25.814;2023-06-26T00:26:06;100758.53;;;12.35;100.00
59650;BME280;46162;57.568;25.814;2023-06-26T00:28:36;100759.13;;;12.47;100.00
59650;BME280;46162;57.568;25.814;2023-06-26T00:31:04;100759.50;;;12.26;100.00
59650;BME280;46162;57.568;25.814;2023-06-26T00:33:33;100751.13;;;12.11;100.00
59650;BME280;46162;57.568;25.814;2023-06-26T00:36:04;100761.13;;;12.11;100.00
59650;BME280;46162;57.568;25.814;2023-06-26T00:38:32;100759.91;;;12.05;100.00
59650;BME280;46162;57.568;25.814;2023-06-26T00:41:01;100752.28;;;12.35;100.00
59650;BME280;46162;57.568;25.814;2023-06-26T00:43:29;100751.31;;;12.44;100.00
59650;BME280;46162;57.568;25.814;2023-06-26T00:45:58;100750.31;;;12.45;100.00
59650;BME280;46162;57.568;25.814;2023-06-26T00:48:27;100745.22;;;12.42;100.00
59650;BME280;46162;57.568;25.814;2023-06-26T00:50:56;100755.34;;;12.40;100.00
59650;BME280;46162;57.568;25.814;2023-06-26T00:53:26;100753.38;;;12.50;100.00
59650;BME280;46162;57.568;25.814;2023-06-26T00:55:54;100762.16;;;12.44;100.00
59650;BME280;46162;57.568;25.814;2023-06-26T00:58:24;100760.16;;;12.20;100.00
59650;BME280;46162;57.568;25.814;2023-06-26T01:00:53;100761.00;;;12.20;100.00
59650;BME280;46162;57.568;25.814;2023-06-26T01:03:23;100745.13;;;12.25;100.00
59650;BME280;46162;57.568;25.814;2023-06-26T01:05:56;100744.50;;;12.32;100.00
59650;BME280;46162;57.568;25.814;2023-06-26T01:08:29;100744.69;;;12.38;100.00
59650;BME280;46162;57.568;25.814;2023-06-26T01:10:59;100742.88;;;12.55;100.00
59650;BME280;46162;57.568;25.814;2023-06-26T01:13:28;100742.28;;;12.69;100.00
59650;BME280;46162;57.568;25.814;2023-06-26T01:15:59;100736.72;;;12.87;100.00
59650;BME280;46162;57.568;25.814;2023-06-26T01:18:29;100736.91;;;12.94;100.00
59650;BME280;46162;57.568;25.814;2023-06-26T01:21:00;100743.81;;;12.72;100.00
59650;BME280;46162;57.568;25.814;2023-06-26T01:23:38;100744.44;;;12.66;100.00
59650;BME280;46162;57.568;25.814;2023-06-26T01:26:16;100743.19;;;12.44;100.00
59650;BME280;46162;57.568;25.814;2023-06-26T01:28:45;100732.25;;;12.19;100.00
59650;BME280;46162;57.568;25.814;2023-06-26T01:31:15;100743.41;;;11.90;100.00
59650;BME280;46162;57.568;25.814;2023-06-26T01:33:44;100748.06;;;12.06;100.00
59650;BME280;46162;57.568;25.814;2023-06-26T01:36:13;100745.63;;;11.95;100.00
59650;BME280;46162;57.568;25.814;2023-06-26T01:38:42;100743.94;;;11.94;100.00
59650;BME280;46162;57.568;25.814;2023-06-26T01:41:10;100738.00;;;11.90;100.00
59650;BME280;46162;57.568;25.814;2023-06-26T01:43:54;100737.16;;;11.90;100.00
59650;BME280;46162;57.568;25.814;2023-06-26T01:46:35;100744.72;;;12.12;100.00
59650;BME280;46162;57.568;25.814;2023-06-26T01:49:11;100738.72;;;12.26;100.00
59650;BME280;46162;57.568;25.814;2023-06-26T01:51:49;100738.91;;;12.33;100.00
59650;BME280;46162;57.568;25.814;2023-06-26T01:54:21;100739.47;;;12.45;100.00
59650;BME280;46162;57.568;25.814;2023-06-26T01:56:53;100736.88;;;12.35;100.00
59650;BME280;46162;57.568;25.814;2023-06-26T01:59:25;100741.47;;;12.35;100.00
59650;BME280;46162;57.568;25.814;2023-06-26T02:01:56;100740.66;;;12.51;100.00
59650;BME280;46162;57.568;25.814;2023-06-26T02:04:27;100732.47;;;12.68;100.00
59650;BME280;46162;57.568;25.814;2023-06-26T02:06:58;100735.38;;;12.83;100.00
59650;BME280;46162;57.568;25.814;2023-06-26T02:09:29;100740.13;;;12.98;100.00
59650;BME280;46162;57.568;25.814;2023-06-26T02:11:57;100745.41;;;13.07;100.00
59650;BME280;46162;57.568;25.814;2023-06-26T02:14:27;100738.97;;;13.08;100.00
59650;BME280;46162;57.568;25.814;2023-06-26T02:16:56;100747.47;;;13.13;100.00
59650;BME280;46162;57.568;25.814;2023-06-26T02:19:25;100741.53;;;13.18;100.00
59650;BME280;46162;57.568;25.814;2023-06-26T02:21:54;100741.00;;;13.23;100.00
59650;BME280;46162;57.568;25.814;2023-06-26T02:24:24;100739.69;;;13.27;100.00
59650;BME280;46162;57.568;25.814;2023-06-26T02:26:54;100733.94;;;13.30;100.00
59650;BME280;46162;57.568;25.814;2023-06-26T02:29:23;100734.28;;;13.27;100.00
59650;BME280;46162;57.568;25.814;2023-06-26T02:31:53;100739.69;;;13.35;100.00
59650;BME280;46162;57.568;25.814;2023-06-26T02:34:22;100734.66;;;13.40;100.00
59650;BME280;46162;57.568;25.814;2023-06-26T02:36:51;100739.03;;;13.41;100.00
59650;BME280;46162;57.568;25.814;2023-06-26T02:39:21;100734.09;;;13.45;100.00
59650;BME280;46162;57.568;25.814;2023-06-26T02:41:50;100735.81;;;13.46;100.00
59650;BME280;46162;57.568;25.814;2023-06-26T02:44:21;100734.47;;;13.42;100.00
59650;BME280;46162;57.568;25.814;2023-06-26T02:46:50;100731.56;;;13.27;100.00
59650;BME280;46162;57.568;25.814;2023-06-26T02:49:20;100729.16;;;13.16;100.00
59650;BME280;46162;57.568;25.814;2023-06-26T02:51:49;100729.47;;;13.04;100.00
59650;BME280;46162;57.568;25.814;2023-06-26T02:54:24;100724.75;;;13.06;100.00
59650;BME280;46162;57.568;25.814;2023-06-26T02:56:56;100730.16;;;13.06;100.00
59650;BME280;46162;57.568;25.814;2023-06-26T02:59:28;100733.06;;;13.21;100.00
59650;BME280;46162;57.568;25.814;2023-06-26T03:01:58;100731.88;;;13.24;100.00
59650;BME280;46162;57.568;25.814;2023-06-26T03:04:39;100732.72;;;13.16;100.00
59650;BME280;46162;57.568;25.814;2023-06-26T03:07:12;100735.59;;;13.06;100.00
59650;BME280;46162;57.568;25.814;2023-06-26T03:09:42;100737.75;;;13.03;100.00
59650;BME280;46162;57.568;25.814;2023-06-26T03:12:12;100727.66;;;13.21;100.00
59650;BME280;46162;57.568;25.814;2023-06-26T03:14:42;100733.97;;;13.38;100.00
59650;BME280;46162;57.568;25.814;2023-06-26T03:17:13;100732.78;;;13.41;100.00
59650;BME280;46162;57.568;25.814;2023-06-26T03:19:46;100731.56;;;13.60;100.00
59650;BME280;46162;57.568;25.814;2023-06-26T03:22:21;100731.56;;;13.60;100.00
59650;BME280;46162;57.568;25.814;2023-06-26T03:24:49;100730.84;;;13.82;100.00
59650;BME280;46162;57.568;25.814;2023-06-26T03:27:18;100734.91;;;13.94;100.00
59650;BME280;46162;57.568;25.814;2023-06-26T03:29:49;100734.59;;;13.89;100.00
59650;BME280;46162;57.568;25.814;2023-06-26T03:32:20;100732.72;;;13.82;100.00
59650;BME280;46162;57.568;25.814;2023-06-26T03:34:51;100740.06;;;13.73;100.00
59650;BME280;46162;57.568;25.814;2023-06-26T03:37:20;100739.69;;;13.76;100.00
59650;BME280;46162;57.568;25.814;2023-06-26T03:39:50;100738.69;;;13.85;100.00
59650;BME280;46162;57.568;25.814;2023-06-26T03:42:18;100734.94;;;13.86;100.00
59650;BME280;46162;57.568;25.814;2023-06-26T03:44:47;100738.63;;;14.10;100.00
59650;BME280;46162;57.568;25.814;2023-06-26T03:47:18;100743.41;;;14.00;100.00
59650;BME280;46162;57.568;25.814;2023-06-26T03:49:47;100730.09;;;14.21;100.00
59650;BME280;46162;57.568;25.814;2023-06-26T03:52:17;100734.75;;;14.52;100.00
59650;BME280;46162;57.568;25.814;2023-06-26T03:54:46;100740.44;;;14.73;100.00
59650;BME280;46162;57.568;25.814;2023-06-26T03:57:17;100733.31;;;14.72;100.00
59650;BME280;46162;57.568;25.814;2023-06-26T03:59:47;100744.44;;;14.86;100.00
59650;BME280;46162;57.568;25.814;2023-06-26T04:02:15;100736.50;;;15.07;100.00
59650;BME280;46162;57.568;25.814;2023-06-26T04:04:44;100740.38;;;15.13;100.00
59650;BME280;46162;57.568;25.814;2023-06-26T04:07:13;100737.19;;;15.09;100.00
59650;BME280;46162;57.568;25.814;2023-06-26T04:09:44;100737.72;;;15.04;100.00
59650;BME280;46162;57.568;25.814;2023-06-26T04:12:13;100742.78;;;15.08;100.00
59650;BME280;46162;57.568;25.814;2023-06-26T04:14:42;100744.59;;;15.15;100.00
59650;BME280;46162;57.568;25.814;2023-06-26T04:17:11;100730.78;;;15.25;100.00
59650;BME280;46162;57.568;25.814;2023-06-26T04:19:39;100730.53;;;15.35;100.00
59650;BME280;46162;57.568;25.814;2023-06-26T04:22:08;100728.19;;;15.32;100.00
59650;BME280;46162;57.568;25.814;2023-06-26T04:24:37;100732.53;;;15.41;100.00
59650;BME280;46162;57.568;25.814;2023-06-26T04:27:07;100735.28;;;15.33;100.00
59650;BME280;46162;57.568;25.814;2023-06-26T04:29:36;100732.28;;;15.27;100.00
59650;BME280;46162;57.568;25.814;2023-06-26T04:32:05;100733.31;;;15.26;100.00
59650;BME280;46162;57.568;25.814;2023-06-26T04:34:34;100731.19;;;15.37;100.00
59650;BME280;46162;57.568;25.814;2023-06-26T04:37:03;100731.56;;;15.34;100.00
59650;BME280;46162;57.568;25.814;2023-06-26T04:39:32;100729.69;;;15.34;100.00
59650;BME280;46162;57.568;25.814;2023-06-26T04:42:01;100727.38;;;15.46;100.00
59650;BME280;46162;57.568;25.814;2023-06-26T04:44:31;100722.06;;;15.67;100.00
59650;BME280;46162;57.568;25.814;2023-06-26T04:46:59;100719.81;;;15.56;100.00
59650;BME280;46162;57.568;25.814;2023-06-26T04:49:28;100715.78;;;15.67;100.00
59650;BME280;46162;57.568;25.814;2023-06-26T04:51:57;100720.16;;;15.76;100.00
59650;BME280;46162;57.568;25.814;2023-06-26T04:54:27;100717.63;;;15.75;100.00
59650;BME280;46162;57.568;25.814;2023-06-26T04:56:56;100722.59;;;15.71;100.00
59650;BME280;46162;57.568;25.814;2023-06-26T04:59:25;100721.28;;;15.82;100.00
59650;BME280;46162;57.568;25.814;2023-06-26T05:01:55;100727.28;;;15.77;100.00
59650;BME280;46162;57.568;25.814;2023-06-26T05:04:23;100726.69;;;15.90;100.00
59650;BME280;46162;57.568;25.814;2023-06-26T05:06:52;100724.78;;;15.76;100.00
59650;BME280;46162;57.568;25.814;2023-06-26T05:09:21;100728.34;;;15.91;100.00
59650;BME280;46162;57.568;25.814;2023-06-26T05:11:49;100728.63;;;15.81;100.00
59650;BME280;46162;57.568;25.814;2023-06-26T05:14:18;100725.06;;;15.81;100.00
59650;BME280;46162;57.568;25.814;2023-06-26T05:16:50;100734.91;;;15.82;100.00
59650;BME280;46162;57.568;25.814;2023-06-26T05:19:20;100731.38;;;15.58;100.00
59650;BME280;46162;57.568;25.814;2023-06-26T05:21:50;100724.66;;;15.46;100.00
59650;BME280;46162;57.568;25.814;2023-06-26T05:24:19;100728.34;;;15.53;100.00
59650;BME280;46162;57.568;25.814;2023-06-26T05:26:51;100726.94;;;15.57;100.00
59650;BME280;46162;57.568;25.814;2023-06-26T05:29:20;100724.88;;;15.59;100.00
59650;BME280;46162;57.568;25.814;2023-06-26T05:31:51;100725.00;;;15.66;100.00
59650;BME280;46162;57.568;25.814;2023-06-26T05:34:23;100725.63;;;15.76;100.00
59650;BME280;46162;57.568;25.814;2023-06-26T05:36:55;100732.38;;;15.80;100.00
59650;BME280;46162;57.568;25.814;2023-06-26T05:39:26;100729.69;;;15.95;100.00
59650;BME280;46162;57.568;25.814;2023-06-26T05:41:56;100726.66;;;15.75;100.00
59650;BME280;46162;57.568;25.814;2023-06-26T05:44:25;100732.84;;;15.84;100.00
59650;BME280;46162;57.568;25.814;2023-06-26T05:46:53;100724.97;;;15.89;100.00
59650;BME280;46162;57.568;25.814;2023-06-26T05:49:24;100725.63;;;15.76;100.00
59650;BME280;46162;57.568;25.814;2023-06-26T05:51:53;100728.66;;;15.96;100.00
59650;BME280;46162;57.568;25.814;2023-06-26T05:54:23;100717.09;;;16.24;100.00
59650;BME280;46162;57.568;25.814;2023-06-26T05:56:56;100721.69;;;16.38;100.00
59650;BME280;46162;57.568;25.814;2023-06-26T05:59:27;100719.91;;;16.45;100.00
59650;BME280;46162;57.568;25.814;2023-06-26T06:01:56;100720.81;;;16.67;100.00
59650;BME280;46162;57.568;25.814;2023-06-26T06:04:26;100720.03;;;16.88;100.00
59650;BME280;46162;57.568;25.814;2023-06-26T06:06:54;100713.66;;;16.81;100.00
59650;BME280;46162;57.568;25.814;2023-06-26T06:09:23;100724.56;;;16.81;100.00
59650;BME280;46162;57.568;25.814;2023-06-26T06:11:52;100715.63;;;16.87;100.00
59650;BME280;46162;57.568;25.814;2023-06-26T06:14:20;100719.50;;;16.78;100.00
59650;BME280;46162;57.568;25.814;2023-06-26T06:16:49;100719.47;;;16.93;100.00
59650;BME280;46162;57.568;25.814;2023-06-26T06:19:18;100714.84;;;16.93;100.00
59650;BME280;46162;57.568;25.814;2023-06-26T06:21:48;100722.09;;;16.86;100.00
59650;BME280;46162;57.568;25.814;2023-06-26T06:24:23;100713.94;;;16.86;100.00
59650;BME280;46162;57.568;25.814;2023-06-26T06:27:15;100715.66;;;17.09;100.00
59650;BME280;46162;57.568;25.814;2023-06-26T06:30:11;100699.00;;;17.47;100.00
59650;BME280;46162;57.568;25.814;2023-06-26T06:32:43;100705.31;;;17.47;100.00
59650;BME280;46162;57.568;25.814;2023-06-26T06:35:23;100703.72;;;17.31;100.00
59650;BME280;46162;57.568;25.814;2023-06-26T06:38:04;100703.19;;;17.21;100.00
59650;BME280;46162;57.568;25.814;2023-06-26T06:40:35;100698.28;;;17.38;100.00
59650;BME280;46162;57.568;25.814;2023-06-26T06:43:24;100696.88;;;17.70;100.00
59650;BME280;46162;57.568;25.814;2023-06-26T06:46:29;100695.59;;;17.66;100.00
59650;BME280;46162;57.568;25.814;2023-06-26T06:48:58;100706.25;;;17.82;100.00
59650;BME280;46162;57.568;25.814;2023-06-26T06:51:54;100702.91;;;17.80;100.00
59650;BME280;46162;57.568;25.814;2023-06-26T06:59:35;100696.38;;;17.81;100.00
59650;BME280;46162;57.568;25.814;2023-06-26T07:02:17;100700.56;;;18.12;100.00
59650;BME280;46162;57.568;25.814;2023-06-26T07:05:15;100700.56;;;18.12;100.00
59650;BME280;46162;57.568;25.814;2023-06-26T07:08:08;100682.63;;;18.38;100.00
59650;BME280;46162;57.568;25.814;2023-06-26T07:10:45;100688.44;;;18.21;100.00
59650;BME280;46162;57.568;25.814;2023-06-26T07:13:19;100700.78;;;18.52;100.00
59650;BME280;46162;57.568;25.814;2023-06-26T07:19:19;100686.31;;;18.65;100.00
59650;BME280;46162;57.568;25.814;2023-06-26T07:22:39;100690.63;;;18.87;100.00
59650;BME280;46162;57.568;25.814;2023-06-26T07:25:10;100696.09;;;18.87;100.00
59650;BME280;46162;57.568;25.814;2023-06-26T07:27:52;100684.38;;;18.59;100.00
59650;BME280;46162;57.568;25.814;2023-06-26T07:30:53;100684.94;;;18.89;100.00
59650;BME280;46162;57.568;25.814;2023-06-26T07:33:51;100682.63;;;18.86;100.00
59650;BME280;46162;57.568;25.814;2023-06-26T07:36:26;100663.88;;;18.83;100.00
59650;BME280;46162;57.568;25.814;2023-06-26T07:38:54;100681.00;;;19.11;100.00
59650;BME280;46162;57.568;25.814;2023-06-26T07:41:23;100678.91;;;19.40;100.00
59650;BME280;46162;57.568;25.814;2023-06-26T07:43:52;100667.75;;;19.35;100.00
59650;BME280;46162;57.568;25.814;2023-06-26T07:46:20;100679.56;;;19.49;100.00
59650;BME280;46162;57.568;25.814;2023-06-26T07:48:49;100664.81;;;19.70;100.00
59650;BME280;46162;57.568;25.814;2023-06-26T07:51:18;100666.06;;;19.67;100.00
59650;BME280;46162;57.568;25.814;2023-06-26T07:53:48;100669.84;;;19.80;100.00
59650;BME280;46162;57.568;25.814;2023-06-26T07:56:17;100671.47;;;20.14;100.00
59650;BME280;46162;57.568;25.814;2023-06-26T07:58:46;100663.19;;;20.34;100.00
59650;BME280;46162;57.568;25.814;2023-06-26T08:01:15;100664.81;;;20.55;100.00
59650;BME280;46162;57.568;25.814;2023-06-26T08:03:44;100659.72;;;20.58;100.00
59650;BME280;46162;57.568;25.814;2023-06-26T08:06:13;100666.66;;;20.68;100.00
59650;BME280;46162;57.568;25.814;2023-06-26T08:08:41;100667.94;;;20.65;100.00
59650;BME280;46162;57.568;25.814;2023-06-26T08:11:11;100665.66;;;20.49;100.00
59650;BME280;46162;57.568;25.814;2023-06-26T08:13:40;100663.94;;;20.54;100.00
59650;BME280;46162;57.568;25.814;2023-06-26T08:16:09;100661.09;;;20.74;100.00
59650;BME280;46162;57.568;25.814;2023-06-26T08:18:38;100673.00;;;21.00;100.00
59650;BME280;46162;57.568;25.814;2023-06-26T08:21:06;100657.69;;;20.86;100.00
59650;BME280;46162;57.568;25.814;2023-06-26T08:23:36;100655.22;;;20.77;96.74
59650;BME280;46162;57.568;25.814;2023-06-26T08:26:05;100652.06;;;21.05;100.00
59650;BME280;46162;57.568;25.814;2023-06-26T08:28:35;100659.03;;;21.33;100.00
59650;BME280;46162;57.568;25.814;2023-06-26T08:31:04;100668.09;;;21.40;100.00
59650;BME280;46162;57.568;25.814;2023-06-26T08:33:33;100660.78;;;21.27;100.00
59650;BME280;46162;57.568;25.814;2023-06-26T08:36:02;100660.69;;;21.41;100.00
59650;BME280;46162;57.568;25.814;2023-06-26T08:38:30;100665.78;;;21.05;100.00
59650;BME280;46162;57.568;25.814;2023-06-26T08:41:00;100660.56;;;20.97;100.00
59650;BME280;46162;57.568;25.814;2023-06-26T08:43:28;100664.91;;;21.12;100.00
59650;BME280;46162;57.568;25.814;2023-06-26T08:45:59;100652.03;;;21.12;100.00
59650;BME280;46162;57.568;25.814;2023-06-26T08:48:29;100656.00;;;20.85;100.00
59650;BME280;46162;57.568;25.814;2023-06-26T08:51:02;100660.50;;;21.04;100.00
59650;BME280;46162;57.568;25.814;2023-06-26T08:53:39;100658.19;;;21.08;100.00
59650;BME280;46162;57.568;25.814;2023-06-26T08:56:09;100654.25;;;20.97;100.00
59650;BME280;46162;57.568;25.814;2023-06-26T08:58:39;100652.47;;;20.77;100.00
59650;BME280;46162;57.568;25.814;2023-06-26T09:01:11;100654.72;;;20.87;100.00
59650;BME280;46162;57.568;25.814;2023-06-26T09:03:41;100647.19;;;20.76;100.00
59650;BME280;46162;57.568;25.814;2023-06-26T09:06:10;100646.78;;;20.72;100.00
59650;BME280;46162;57.568;25.814;2023-06-26T09:08:39;100642.44;;;20.58;100.00
59650;BME280;46162;57.568;25.814;2023-06-26T09:11:07;100633.13;;;20.52;100.00
59650;BME280;46162;57.568;25.814;2023-06-26T09:13:36;100637.13;;;20.63;100.00
59650;BME280;46162;57.568;25.814;2023-06-26T09:16:06;100624.22;;;21.02;100.00
59650;BME280;46162;57.568;25.814;2023-06-26T09:18:37;100624.16;;;21.09;100.00
59650;BME280;46162;57.568;25.814;2023-06-26T09:21:07;100621.91;;;21.24;100.00
59650;BME280;46162;57.568;25.814;2023-06-26T09:23:36;100627.16;;;21.57;100.00
59650;BME280;46162;57.568;25.814;2023-06-26T09:26:05;100618.81;;;20.89;100.00
59650;BME280;46162;57.568;25.814;2023-06-26T09:28:35;100625.78;;;21.16;100.00
59650;BME280;46162;57.568;25.814;2023-06-26T09:31:05;100613.13;;;20.90;100.00
59650;BME280;46162;57.568;25.814;2023-06-26T09:33:37;100617.59;;;20.85;100.00
59650;BME280;46162;57.568;25.814;2023-06-26T09:36:07;100624.06;;;20.58;100.00
59650;BME280;46162;57.568;25.814;2023-06-26T09:38:38;100619.41;;;20.52;100.00
59650;BME280;46162;57.568;25.814;2023-06-26T09:41:06;100613.09;;;20.52;100.00
59650;BME280;46162;57.568;25.814;2023-06-26T09:43:45;100618.75;;;20.18;100.00
59650;BME280;46162;57.568;25.814;2023-06-26T09:46:28;100600.84;;;20.09;100.00
59650;BME280;46162;57.568;25.814;2023-06-26T09:49:19;100599.56;;;20.18;100.00
59650;BME280;46162;57.568;25.814;2023-06-26T09:52:15;100614.66;;;20.34;100.00
59650;BME280;46162;57.568;25.814;2023-06-26T09:59:37;100601.22;;;20.19;100.00
59650;BME280;46162;57.568;25.814;2023-06-26T10:02:55;100600.63;;;20.63;100.00
59650;BME280;46162;57.568;25.814;2023-06-26T10:05:27;100609.44;;;21.03;100.00
59650;BME280;46162;57.568;25.814;2023-06-26T10:11:55;100597.31;;;20.86;100.00
59650;BME280;46162;57.568;25.814;2023-06-26T10:14:34;100590.13;;;20.53;100.00
59650;BME280;46162;57.568;25.814;2023-06-26T10:17:10;100603.88;;;20.39;100.00
59650;BME280;46162;57.568;25.814;2023-06-26T10:19:46;100600.47;;;20.51;100.00
59650;BME280;46162;57.568;25.814;2023-06-26T10:22:27;100604.25;;;20.56;100.00
59650;BME280;46162;57.568;25.814;2023-06-26T10:25:24;100606.97;;;20.63;100.00
59650;BME280;46162;57.568;25.814;2023-06-26T10:28:27;100596.25;;;20.55;100.00
59650;BME280;46162;57.568;25.814;2023-06-26T10:30:58;100600.41;;;20.64;100.00
59650;BME280;46162;57.568;25.814;2023-06-26T10:33:33;100601.44;;;20.70;100.00
59650;BME280;46162;57.568;25.814;2023-06-26T10:36:17;100594.84;;;20.77;100.00
59650;BME280;46162;57.568;25.814;2023-06-26T10:38:52;100599.53;;;21.02;100.00
59650;BME280;46162;57.568;25.814;2023-06-26T10:41:22;100592.91;;;21.10;100.00
59650;BME280;46162;57.568;25.814;2023-06-26T10:43:51;100599.44;;;21.34;100.00
59650;BME280;46162;57.568;25.814;2023-06-26T10:46:21;100595.59;;;21.16;100.00
59650;BME280;46162;57.568;25.814;2023-06-26T10:48:56;100594.09;;;21.45;100.00
59650;BME280;46162;57.568;25.814;2023-06-26T10:51:26;100595.28;;;21.75;100.00
59650;BME280;46162;57.568;25.814;2023-06-26T10:53:57;100591.34;;;22.26;100.00
59650;BME280;46162;57.568;25.814;2023-06-26T10:56:42;100584.53;;;22.59;98.22
59650;BME280;46162;57.568;25.814;2023-06-26T10:59:17;100576.81;;;22.79;99.59
59650;BME280;46162;57.568;25.814;2023-06-26T11:01:47;100572.13;;;23.10;82.78
59650;BME280;46162;57.568;25.814;2023-06-26T11:04:56;100567.72;;;23.21;97.70
59650;BME280;46162;57.568;25.814;2023-06-26T11:08:06;100558.19;;;22.93;98.91
59650;BME280;46162;57.568;25.814;2023-06-26T11:10:50;100559.81;;;22.82;95.10
59650;BME280;46162;57.568;25.814;2023-06-26T11:13:21;100560.63;;;23.01;82.18
59650;BME280;46162;57.568;25.814;2023-06-26T11:15:50;100560.66;;;23.25;100.00
59650;BME280;46162;57.568;25.814;2023-06-26T11:18:19;100558.84;;;23.42;100.00
59650;BME280;46162;57.568;25.814;2023-06-26T11:20:47;100561.13;;;23.10;93.60
59650;BME280;46162;57.568;25.814;2023-06-26T11:23:22;100566.16;;;23.25;91.06
59650;BME280;46162;57.568;25.814;2023-06-26T11:25:54;100568.56;;;23.45;93.89
59650;BME280;46162;57.568;25.814;2023-06-26T11:28:24;100571.53;;;23.43;88.32
59650;BME280;46162;57.568;25.814;2023-06-26T11:30:52;100579.78;;;23.31;89.73
59650;BME280;46162;57.568;25.814;2023-06-26T11:33:26;100572.41;;;23.32;86.82
59650;BME280;46162;57.568;25.814;2023-06-26T11:35:55;100563.41;;;23.25;91.78
59650;BME280;46162;57.568;25.814;2023-06-26T11:38:24;100562.69;;;23.53;91.24
59650;BME280;46162;57.568;25.814;2023-06-26T11:40:54;100570.44;;;23.56;82.94
59650;BME280;46162;57.568;25.814;2023-06-26T11:43:24;100557.16;;;23.29;86.52
59650;BME280;46162;57.568;25.814;2023-06-26T11:45:52;100565.19;;;23.43;89.87
59650;BME280;46162;57.568;25.814;2023-06-26T11:48:21;100563.16;;;23.26;89.84
59650;BME280;46162;57.568;25.814;2023-06-26T11:50:50;100561.84;;;23.40;89.11
59650;BME280;46162;57.568;25.814;2023-06-26T11:53:19;100552.84;;;23.33;82.80
59650;BME280;46162;57.568;25.814;2023-06-26T11:55:48;100547.84;;;23.30;77.08
59650;BME280;46162;57.568;25.814;2023-06-26T11:58:18;100557.38;;;23.63;87.91
59650;BME280;46162;57.568;25.814;2023-06-26T12:00:47;100550.69;;;23.59;81.27
59650;BME280;46162;57.568;25.814;2023-06-26T12:03:16;100554.19;;;23.43;79.99
59650;BME280;46162;57.568;25.814;2023-06-26T12:05:45;100547.94;;;23.47;80.61
59650;BME280;46162;57.568;25.814;2023-06-26T12:08:14;100541.47;;;23.53;83.52
59650;BME280;46162;57.568;25.814;2023-06-26T12:10:43;100541.72;;;23.52;79.34
59650;BME280;46162;57.568;25.814;2023-06-26T12:13:13;100537.16;;;23.34;83.72
59650;BME280;46162;57.568;25.814;2023-06-26T12:15:44;100531.41;;;23.24;86.96
59650;BME280;46162;57.568;25.814;2023-06-26T12:18:12;100531.78;;;23.04;79.62
59650;BME280;46162;57.568;25.814;2023-06-26T12:20:41;100527.47;;;23.08;88.47
59650;BME280;46162;57.568;25.814;2023-06-26T12:23:13;100520.53;;;23.17;85.07
59650;BME280;46162;57.568;25.814;2023-06-26T12:25:42;100512.50;;;23.04;87.36
59650;BME280;46162;57.568;25.814;2023-06-26T12:28:17;100512.09;;;22.88;94.66
59650;BME280;46162;57.568;25.814;2023-06-26T12:33:31;100506.09;;;22.91;89.64
59650;BME280;46162;57.568;25.814;2023-06-26T12:36:00;100508.47;;;22.76;90.38
59650;BME280;46162;57.568;25.814;2023-06-26T12:38:33;100502.09;;;22.52;89.78
59650;BME280;46162;57.568;25.814;2023-06-26T12:41:01;100507.22;;;22.48;92.94
59650;BME280;46162;57.568;25.814;2023-06-26T12:43:31;100501.50;;;22.62;100.00
59650;BME280;46162;57.568;25.814;2023-06-26T12:46:02;100501.31;;;22.75;96.35
59650;BME280;46162;57.568;25.814;2023-06-26T12:48:38;100490.50;;;22.62;89.58
59650;BME280;46162;57.568;25.814;2023-06-26T12:51:11;100497.06;;;22.49;91.68
59650;BME280;46162;57.568;25.814;2023-06-26T12:53:40;100499.34;;;22.52;94.32
59650;BME280;46162;57.568;25.814;2023-06-26T12:56:10;100489.78;;;22.54;89.19
59650;BME280;46162;57.568;25.814;2023-06-26T12:58:39;100481.88;;;22.46;92.08
59650;BME280;46162;57.568;25.814;2023-06-26T13:01:09;100482.34;;;22.55;89.73
59650;BME280;46162;57.568;25.814;2023-06-26T13:03:42;100485.22;;;22.48;82.17
59650;BME280;46162;57.568;25.814;2023-06-26T13:06:11;100480.91;;;22.52;77.66
59650;BME280;46162;57.568;25.814;2023-06-26T13:08:41;100476.72;;;22.50;86.93
59650;BME280;46162;57.568;25.814;2023-06-26T13:11:10;100477.09;;;22.53;79.71
59650;BME280;46162;57.568;25.814;2023-06-26T13:13:38;100468.59;;;22.55;68.34
59650;BME280;46162;57.568;25.814;2023-06-26T13:16:08;100459.13;;;22.39;83.77
59650;BME280;46162;57.568;25.814;2023-06-26T13:18:37;100453.13;;;22.42;87.18